Houma, Louisiana
Current Conditions -  °F | °C
As of 11:35 PM on Friday 19 Dec 2014 (Local Time) from KHUM Reporting Station
Light Rain Light Rain  
Wind Chill: 50°   Ceiling: 400
Heat Index: 50°   Visibility: 7mi
Dew Point: 49°   Wind: 10mph
Humidity: 97%   Direction: 40°NE
Pressure: 30.06"   Gusts: NA
Location:  29.6°N, 90.72°W
Report Text: KHUM 200535Z AUTO 04009KT 7SM -RA OVC004 10/10 A3006 RMK AO2 P0006 T01010097
Loading
Personal Weather Stations






























Interactive Weather Map New forecast layout! Learn more

10-Day Weather Forecast

Advertisements
Track Severe Weather on mobile